Here is the Quick Look data you requested

The Data originates at the National Weather Service, and is made available here by the UAlbany Department of Atmospheric and Environmental Sciences

Surface Observations

KAKQ 220554Z AUTO 00000KT 10SM CLR 23/22 A2991 RMK AO2 SLP128 T02330217 10294
 20233 58004=
KAVC 220555Z AUTO 21003KT 10SM CLR 24/23 A3000 RMK AO2 T02350232=
KBCB 220555Z AUTO 00000KT 10SM SCT070 21/21 A3007 RMK AO2 T02070207 10247 20206=
KCHO 220553Z AUTO 18004KT 10SM CLR 25/19 A2991 RMK AO2 SLP119 T02500194 10278
 20250 58003=
KCJR 220555Z AUTO 00000KT 10SM CLR 23/20 A2992 RMK AO2 T02330202 10281 20227=
KCPK 220555Z AUTO 00000KT 10SM SCT070 26/23 A2992 RMK AO2 T02550230 10312 20252=
KDAA 220556Z AUTO 00000KT 10SM CLR 23/21 A2989 RMK AO2 SLP124 T02330210 10314
 20232 50001 $=
KDAN 220553Z AUTO 00000KT 10SM CLR 23/22 A2996 RMK AO2 SLP131 T02330222 10283
 20233 56004=
KDCA 220552Z 01003KT 10SM BKN150 OVC250 26/21 A2989 RMK AO2 SLP121 60000
 T02610206 10328 20261 58001=
KEZF 220555Z AUTO 14004KT 10SM CLR 24/23 A2989 RMK AO2 T02400228 10302 20238
 403840238=
KFAF 220556Z AUTO 19003KT 10SM CLR 27/21 A2989 RMK AO2 SLP125 T02740214 10316
 20266 57003 $=
KFKN 220555Z AUTO 19003KT 10SM CLR 27/24 A2993 RMK AO2 T02660243 10326 20263=
KFVX 220555Z AUTO 00000KT 7SM CLR 22/22 A2992 RMK AO2 T02150215 10244 20213=
KHEF 220556Z AUTO 00000KT 10SM CLR 23/22 A2990 RMK AO2 SLP132 6//// T02280217
 10272 20228 50001 PNO $=
KHLX 220555Z AUTO 21003KT 10SM BKN032 BKN060 21/21 A3007 RMK AO2 T02110205
 10230 20207=
KHSP 220554Z AUTO 26011KT 10SM CLR 19/19 A3011 RMK AO2=
KIAD 220552Z 12003KT 10SM BKN140 BKN250 23/20 A2989 RMK AO2 SLP119 60000
 T02280200 10267 20222 58004=
KJYO 220555Z AUTO 25003KT 10SM CLR 22/21 A2991 RMK AO2=
KLFI 220556Z 00000KT 10SM FEW200 27/24 A2991 RMK AO2A SLP135 T02690237 10324
 20268 56003 $=
KLKU 220555Z AUTO 22003KT 10SM CLR 22/21 A2996 RMK AO2 10253 20221=
KLNP 220555Z AUTO 22005KT 10SM SCT018 BKN070 OVC085 22/22 A3009 RMK AO2=
KLYH 220554Z AUTO 19003KT 10SM CLR 22/22 A2996 RMK AO2 SLP133 T02170217 10239
 20217 58005=
KMFV 220555Z AUTO 23004KT 10SM CLR 27/25 A2990 RMK AO2 T02730249 10310 20271=
KMKJ 220555Z AUTO 00000KT 7SM SCT016 BKN022 OVC110 22/22 A3010 RMK AO2 LTG DSNT
 E P0002 60007 T02220222 10267 20220=
KMTV 220601Z AUTO 00000KT 10SM CLR 22/22 A3000 RMK AO2=
KNGU 220559Z 21004KT 10SM FEW070 28/24 A2993 RMK AO2 SLP134 T02780239 10339
 20278 55001 $
KNTU 220556Z 23006KT 10SM CLR 28/23 A2991 RMK AO2 SLP130 T02780228 10328 20267
 50000 $=
KNYG 220556Z AUTO 30003KT 10SM CLR 27/22 A2990 RMK AO2 SLP125 T02670217 10322
 20239 50000 $=
KOFP 220554Z AUTO 21004KT 10SM CLR 26/20 A2992 RMK AO2 SLP129 T02560200 10300
 20233 58001=
KOKV 220555Z AUTO 21004KT 10SM CLR 22/19 A2994 RMK AO2=
KOMH 220555Z AUTO 00000KT 10SM CLR 22/20 A2991 RMK AO2=
KORF 220551Z 21005KT 10SM CLR 29/23 A2991 RMK AO2 SLP128 T02940228 10350 20294
 58001 $=
KPHF 220554Z AUTO 22004KT 10SM CLR 27/22 A2991 RMK AO2 SLP128 T02720217 10328
 20267 56002=
KPSK 220555Z AUTO 00000KT 7SM SCT047 BKN060 BKN080 21/21 A3006 RMK AO2
 T02100210 10240 20208=
KRIC 220554Z 18004KT 10SM CLR 24/22 A2991 RMK AO2 SLP131 T02390217 10300 20233
 58001=
KROA 220554Z 00000KT 10SM SCT060 22/21 A3000 RMK AO2 SLP147 T02220206 10239
 20217 58004=
KSFQ 220555Z AUTO 00000KT 10SM CLR 26/23 A2993 RMK AO2 T02550233 10325 20255=
KSHD 220550Z AUTO 00000KT 7SM CLR 21/21 A2998 RMK AO2 T02100207 10215 20210
 403520196=
KVJI 220555Z AUTO 33003KT 10SM SCT019 BKN026 OVC034 22/22 A3005 RMK AO2 LTG
 DSNT NE P0007 6//// T02190217=
KWAL 220554Z AUTO 26005KT 10SM CLR 29/23 A2990 RMK AO2 SLP120 T02890228 10311
 20289 53001=